sensor_id;sensor_type;location;lat;lon;timestamp;P1;durP1;ratioP1;P2;durP2;ratioP2
51122;SDS011;37162;41.724;13.346;2022-11-15T00:00:47;2.58;;;2.08;;
51122;SDS011;37162;41.724;13.346;2022-11-15T00:03:13;3.40;;;2.25;;
51122;SDS011;37162;41.724;13.346;2022-11-15T00:05:39;2.08;;;1.88;;
51122;SDS011;37162;41.724;13.346;2022-11-15T00:08:05;2.58;;;2.28;;
51122;SDS011;37162;41.724;13.346;2022-11-15T00:10:30;2.10;;;1.83;;
51122;SDS011;37162;41.724;13.346;2022-11-15T00:12:55;2.15;;;1.80;;
51122;SDS011;37162;41.724;13.346;2022-11-15T00:15:21;2.28;;;1.80;;
51122;SDS011;37162;41.724;13.346;2022-11-15T00:17:48;4.03;;;2.20;;
51122;SDS011;37162;41.724;13.346;2022-11-15T00:20:14;2.92;;;1.77;;
51122;SDS011;37162;41.724;13.346;2022-11-15T00:22:39;2.83;;;2.10;;
51122;SDS011;37162;41.724;13.346;2022-11-15T00:25:05;2.65;;;2.10;;
51122;SDS011;37162;41.724;13.346;2022-11-15T00:27:30;3.53;;;2.08;;
51122;SDS011;37162;41.724;13.346;2022-11-15T00:29:56;1.90;;;1.70;;
51122;SDS011;37162;41.724;13.346;2022-11-15T00:32:22;3.28;;;2.00;;
51122;SDS011;37162;41.724;13.346;2022-11-15T00:34:47;4.18;;;2.35;;
51122;SDS011;37162;41.724;13.346;2022-11-15T00:37:12;2.58;;;2.00;;
51122;SDS011;37162;41.724;13.346;2022-11-15T00:39:38;3.42;;;2.00;;
51122;SDS011;37162;41.724;13.346;2022-11-15T00:42:03;2.22;;;1.83;;
51122;SDS011;37162;41.724;13.346;2022-11-15T00:44:28;3.50;;;2.10;;
51122;SDS011;37162;41.724;13.346;2022-11-15T00:46:54;3.35;;;1.98;;
51122;SDS011;37162;41.724;13.346;2022-11-15T00:49:19;3.28;;;2.05;;
51122;SDS011;37162;41.724;13.346;2022-11-15T00:51:45;3.42;;;1.85;;
51122;SDS011;37162;41.724;13.346;2022-11-15T00:54:10;2.03;;;1.80;;
51122;SDS011;37162;41.724;13.346;2022-11-15T00:56:36;2.47;;;2.05;;
51122;SDS011;37162;41.724;13.346;2022-11-15T00:59:01;2.83;;;2.10;;
51122;SDS011;37162;41.724;13.346;2022-11-15T01:01:26;3.15;;;2.28;;
51122;SDS011;37162;41.724;13.346;2022-11-15T01:03:52;2.25;;;2.00;;
51122;SDS011;37162;41.724;13.346;2022-11-15T01:06:17;2.47;;;2.00;;
51122;SDS011;37162;41.724;13.346;2022-11-15T01:08:43;2.95;;;2.10;;
51122;SDS011;37162;41.724;13.346;2022-11-15T01:11:10;3.00;;;2.15;;
51122;SDS011;37162;41.724;13.346;2022-11-15T01:13:37;2.17;;;1.98;;
51122;SDS011;37162;41.724;13.346;2022-11-15T01:16:08;3.17;;;1.80;;
51122;SDS011;37162;41.724;13.346;2022-11-15T01:18:38;2.88;;;2.13;;
51122;SDS011;37162;41.724;13.346;2022-11-15T01:21:15;2.55;;;1.92;;
51122;SDS011;37162;41.724;13.346;2022-11-15T01:23:43;3.22;;;2.03;;
51122;SDS011;37162;41.724;13.346;2022-11-15T01:26:10;2.60;;;1.90;;
51122;SDS011;37162;41.724;13.346;2022-11-15T01:28:38;2.97;;;2.03;;
51122;SDS011;37162;41.724;13.346;2022-11-15T01:31:06;2.03;;;1.75;;
51122;SDS011;37162;41.724;13.346;2022-11-15T01:33:37;1.83;;;1.70;;
51122;SDS011;37162;41.724;13.346;2022-11-15T01:36:03;1.77;;;1.55;;
51122;SDS011;37162;41.724;13.346;2022-11-15T01:38:30;2.33;;;1.60;;
51122;SDS011;37162;41.724;13.346;2022-11-15T01:40:56;1.92;;;1.60;;
51122;SDS011;37162;41.724;13.346;2022-11-15T01:43:42;2.03;;;1.58;;
51122;SDS011;37162;41.724;13.346;2022-11-15T01:49:02;2.28;;;1.77;;
51122;SDS011;37162;41.724;13.346;2022-11-15T01:51:35;2.20;;;1.58;;
51122;SDS011;37162;41.724;13.346;2022-11-15T01:54:05;1.60;;;1.50;;
51122;SDS011;37162;41.724;13.346;2022-11-15T01:56:36;1.20;;;1.10;;
51122;SDS011;37162;41.724;13.346;2022-11-15T01:59:07;2.05;;;1.83;;
51122;SDS011;37162;41.724;13.346;2022-11-15T02:01:33;2.72;;;1.60;;
51122;SDS011;37162;41.724;13.346;2022-11-15T02:06:37;2.05;;;1.58;;
51122;SDS011;37162;41.724;13.346;2022-11-15T02:09:03;1.52;;;1.20;;
51122;SDS011;37162;41.724;13.346;2022-11-15T02:11:29;1.88;;;1.40;;
51122;SDS011;37162;41.724;13.346;2022-11-15T02:13:56;1.45;;;1.35;;
51122;SDS011;37162;41.724;13.346;2022-11-15T02:32:18;2.00;;;1.50;;
51122;SDS011;37162;41.724;13.346;2022-11-15T02:35:15;1.40;;;1.27;;
51122;SDS011;37162;41.724;13.346;2022-11-15T02:37:51;2.25;;;1.42;;
51122;SDS011;37162;41.724;13.346;2022-11-15T02:42:50;1.88;;;1.55;;
51122;SDS011;37162;41.724;13.346;2022-11-15T02:45:41;2.37;;;1.57;;
51122;SDS011;37162;41.724;13.346;2022-11-15T02:48:16;2.20;;;1.80;;
51122;SDS011;37162;41.724;13.346;2022-11-15T02:50:43;1.38;;;1.25;;
51122;SDS011;37162;41.724;13.346;2022-11-15T02:53:10;2.10;;;1.67;;
51122;SDS011;37162;41.724;13.346;2022-11-15T02:55:36;2.10;;;1.40;;
51122;SDS011;37162;41.724;13.346;2022-11-15T03:09:40;1.48;;;1.38;;
51122;SDS011;37162;41.724;13.346;2022-11-15T03:12:33;2.28;;;1.48;;
51122;SDS011;37162;41.724;13.346;2022-11-15T03:15:06;1.30;;;1.20;;
51122;SDS011;37162;41.724;13.346;2022-11-15T03:17:41;2.58;;;1.35;;
51122;SDS011;37162;41.724;13.346;2022-11-15T03:20:13;2.00;;;1.60;;
51122;SDS011;37162;41.724;13.346;2022-11-15T03:22:42;3.17;;;1.23;;
51122;SDS011;37162;41.724;13.346;2022-11-15T03:25:10;1.60;;;1.38;;
51122;SDS011;37162;41.724;13.346;2022-11-15T03:27:43;3.75;;;1.42;;
51122;SDS011;37162;41.724;13.346;2022-11-15T03:30:11;2.00;;;1.60;;
51122;SDS011;37162;41.724;13.346;2022-11-15T03:32:39;1.42;;;1.30;;
51122;SDS011;37162;41.724;13.346;2022-11-15T03:35:11;1.50;;;1.40;;
51122;SDS011;37162;41.724;13.346;2022-11-15T03:40:10;1.52;;;1.42;;
51122;SDS011;37162;41.724;13.346;2022-11-15T03:42:38;2.33;;;1.70;;
51122;SDS011;37162;41.724;13.346;2022-11-15T03:45:15;2.47;;;1.55;;
51122;SDS011;37162;41.724;13.346;2022-11-15T03:47:46;1.48;;;1.38;;
51122;SDS011;37162;41.724;13.346;2022-11-15T03:50:20;1.55;;;1.45;;
51122;SDS011;37162;41.724;13.346;2022-11-15T03:52:47;1.67;;;1.10;;
51122;SDS011;37162;41.724;13.346;2022-11-15T03:55:16;2.35;;;1.17;;
51122;SDS011;37162;41.724;13.346;2022-11-15T03:57:43;2.28;;;1.50;;
51122;SDS011;37162;41.724;13.346;2022-11-15T04:00:09;2.25;;;1.70;;
51122;SDS011;37162;41.724;13.346;2022-11-15T04:02:35;1.60;;;1.50;;
51122;SDS011;37162;41.724;13.346;2022-11-15T04:05:01;1.88;;;1.30;;
51122;SDS011;37162;41.724;13.346;2022-11-15T04:07:26;1.83;;;1.40;;
51122;SDS011;37162;41.724;13.346;2022-11-15T04:09:52;1.90;;;1.50;;
51122;SDS011;37162;41.724;13.346;2022-11-15T04:12:34;1.30;;;1.20;;
51122;SDS011;37162;41.724;13.346;2022-11-15T04:15:13;1.67;;;1.50;;
51122;SDS011;37162;41.724;13.346;2022-11-15T04:17:41;3.33;;;1.50;;
51122;SDS011;37162;41.724;13.346;2022-11-15T04:20:14;2.53;;;1.45;;
51122;SDS011;37162;41.724;13.346;2022-11-15T04:23:04;1.45;;;1.27;;
51122;SDS011;37162;41.724;13.346;2022-11-15T04:25:51;2.83;;;1.60;;
51122;SDS011;37162;41.724;13.346;2022-11-15T04:28:19;1.77;;;1.40;;
51122;SDS011;37162;41.724;13.346;2022-11-15T04:30:44;1.30;;;1.20;;
51122;SDS011;37162;41.724;13.346;2022-11-15T04:33:10;1.67;;;1.40;;
51122;SDS011;37162;41.724;13.346;2022-11-15T04:35:35;1.70;;;1.27;;
51122;SDS011;37162;41.724;13.346;2022-11-15T04:38:01;1.83;;;1.50;;
51122;SDS011;37162;41.724;13.346;2022-11-15T04:40:28;1.42;;;1.20;;
51122;SDS011;37162;41.724;13.346;2022-11-15T04:42:54;1.83;;;1.60;;
51122;SDS011;37162;41.724;13.346;2022-11-15T04:45:20;1.52;;;1.40;;
51122;SDS011;37162;41.724;13.346;2022-11-15T04:47:45;1.20;;;1.10;;
51122;SDS011;37162;41.724;13.346;2022-11-15T04:50:12;1.40;;;1.30;;
51122;SDS011;37162;41.724;13.346;2022-11-15T04:52:41;2.28;;;1.20;;
51122;SDS011;37162;41.724;13.346;2022-11-15T04:55:09;1.42;;;1.23;;
51122;SDS011;37162;41.724;13.346;2022-11-15T04:57:35;1.40;;;1.30;;
51122;SDS011;37162;41.724;13.346;2022-11-15T05:00:01;1.83;;;1.40;;
51122;SDS011;37162;41.724;13.346;2022-11-15T05:02:30;1.85;;;1.73;;
51122;SDS011;37162;41.724;13.346;2022-11-15T05:05:16;1.52;;;1.40;;
51122;SDS011;37162;41.724;13.346;2022-11-15T05:07:41;1.77;;;1.48;;
51122;SDS011;37162;41.724;13.346;2022-11-15T05:10:07;1.52;;;1.42;;
51122;SDS011;37162;41.724;13.346;2022-11-15T05:12:32;1.30;;;1.15;;
51122;SDS011;37162;41.724;13.346;2022-11-15T05:14:58;1.67;;;1.45;;
51122;SDS011;37162;41.724;13.346;2022-11-15T05:17:23;2.70;;;2.25;;
51122;SDS011;37162;41.724;13.346;2022-11-15T05:19:49;2.20;;;1.50;;
51122;SDS011;37162;41.724;13.346;2022-11-15T05:22:14;1.55;;;1.40;;
51122;SDS011;37162;41.724;13.346;2022-11-15T05:24:39;1.60;;;1.50;;
51122;SDS011;37162;41.724;13.346;2022-11-15T05:27:05;3.60;;;1.70;;
51122;SDS011;37162;41.724;13.346;2022-11-15T05:29:30;1.70;;;1.60;;
51122;SDS011;37162;41.724;13.346;2022-11-15T05:31:55;1.73;;;1.50;;
51122;SDS011;37162;41.724;13.346;2022-11-15T05:34:21;1.60;;;1.50;;
51122;SDS011;37162;41.724;13.346;2022-11-15T05:36:47;1.40;;;1.30;;
51122;SDS011;37162;41.724;13.346;2022-11-15T05:39:13;1.70;;;1.60;;
51122;SDS011;37162;41.724;13.346;2022-11-15T05:41:40;2.72;;;1.38;;
51122;SDS011;37162;41.724;13.346;2022-11-15T05:44:13;1.90;;;1.30;;
51122;SDS011;37162;41.724;13.346;2022-11-15T05:46:41;1.40;;;1.23;;
51122;SDS011;37162;41.724;13.346;2022-11-15T05:49:09;2.17;;;1.50;;
51122;SDS011;37162;41.724;13.346;2022-11-15T05:51:38;1.50;;;1.40;;
51122;SDS011;37162;41.724;13.346;2022-11-15T05:54:05;1.60;;;1.50;;
51122;SDS011;37162;41.724;13.346;2022-11-15T05:56:30;2.20;;;1.48;;
51122;SDS011;37162;41.724;13.346;2022-11-15T05:58:56;1.65;;;1.52;;
51122;SDS011;37162;41.724;13.346;2022-11-15T06:01:23;2.53;;;1.52;;
51122;SDS011;37162;41.724;13.346;2022-11-15T06:03:50;1.70;;;1.60;;
51122;SDS011;37162;41.724;13.346;2022-11-15T06:06:15;4.53;;;1.70;;
51122;SDS011;37162;41.724;13.346;2022-11-15T06:08:41;4.53;;;2.25;;
51122;SDS011;37162;41.724;13.346;2022-11-15T06:11:06;2.08;;;1.50;;
51122;SDS011;37162;41.724;13.346;2022-11-15T06:13:32;2.08;;;1.88;;
51122;SDS011;37162;41.724;13.346;2022-11-15T06:15:59;2.05;;;1.85;;
51122;SDS011;37162;41.724;13.346;2022-11-15T06:18:24;1.90;;;1.63;;
51122;SDS011;37162;41.724;13.346;2022-11-15T06:20:50;1.92;;;1.63;;
51122;SDS011;37162;41.724;13.346;2022-11-15T06:23:15;4.97;;;1.90;;
51122;SDS011;37162;41.724;13.346;2022-11-15T06:25:41;12.93;;;2.22;;
51122;SDS011;37162;41.724;13.346;2022-11-15T06:28:06;3.65;;;1.88;;
51122;SDS011;37162;41.724;13.346;2022-11-15T06:30:32;1.88;;;1.70;;
51122;SDS011;37162;41.724;13.346;2022-11-15T06:33:01;2.25;;;1.90;;
51122;SDS011;37162;41.724;13.346;2022-11-15T06:35:28;3.08;;;2.00;;
51122;SDS011;37162;41.724;13.346;2022-11-15T06:37:54;2.58;;;1.90;;
51122;SDS011;37162;41.724;13.346;2022-11-15T06:40:19;4.95;;;1.73;;
51122;SDS011;37162;41.724;13.346;2022-11-15T06:42:45;3.38;;;1.60;;
51122;SDS011;37162;41.724;13.346;2022-11-15T06:45:10;2.08;;;1.85;;
51122;SDS011;37162;41.724;13.346;2022-11-15T06:47:36;5.10;;;2.20;;
51122;SDS011;37162;41.724;13.346;2022-11-15T06:50:09;2.65;;;1.65;;
51122;SDS011;37162;41.724;13.346;2022-11-15T06:52:34;6.05;;;2.10;;
51122;SDS011;37162;41.724;13.346;2022-11-15T06:55:00;2.05;;;1.73;;
51122;SDS011;37162;41.724;13.346;2022-11-15T06:57:25;1.90;;;1.70;;
51122;SDS011;37162;41.724;13.346;2022-11-15T06:59:51;1.60;;;1.50;;
51122;SDS011;37162;41.724;13.346;2022-11-15T07:02:16;1.80;;;1.58;;
51122;SDS011;37162;41.724;13.346;2022-11-15T07:04:41;2.50;;;1.60;;
51122;SDS011;37162;41.724;13.346;2022-11-15T07:07:07;2.92;;;1.52;;
51122;SDS011;37162;41.724;13.346;2022-11-15T07:09:32;1.63;;;1.38;;
51122;SDS011;37162;41.724;13.346;2022-11-15T07:11:59;1.90;;;1.27;;
51122;SDS011;37162;41.724;13.346;2022-11-15T07:14:24;2.63;;;1.60;;
51122;SDS011;37162;41.724;13.346;2022-11-15T07:16:49;3.22;;;1.27;;
51122;SDS011;37162;41.724;13.346;2022-11-15T07:19:15;1.67;;;1.48;;
51122;SDS011;37162;41.724;13.346;2022-11-15T07:21:40;2.13;;;1.52;;
51122;SDS011;37162;41.724;13.346;2022-11-15T07:24:06;3.92;;;1.35;;
51122;SDS011;37162;41.724;13.346;2022-11-15T07:26:31;3.58;;;1.90;;
51122;SDS011;37162;41.724;13.346;2022-11-15T07:28:57;3.15;;;1.63;;
51122;SDS011;37162;41.724;13.346;2022-11-15T07:31:22;2.40;;;1.88;;
51122;SDS011;37162;41.724;13.346;2022-11-15T07:33:48;2.20;;;1.90;;
51122;SDS011;37162;41.724;13.346;2022-11-15T07:36:13;5.03;;;2.00;;
51122;SDS011;37162;41.724;13.346;2022-11-15T07:38:38;2.20;;;1.63;;
51122;SDS011;37162;41.724;13.346;2022-11-15T07:41:04;4.82;;;2.35;;
51122;SDS011;37162;41.724;13.346;2022-11-15T07:43:31;2.17;;;1.90;;
51122;SDS011;37162;41.724;13.346;2022-11-15T07:45:58;2.05;;;1.80;;
51122;SDS011;37162;41.724;13.346;2022-11-15T07:48:29;3.08;;;1.85;;
51122;SDS011;37162;41.724;13.346;2022-11-15T07:50:54;4.13;;;1.90;;
51122;SDS011;37162;41.724;13.346;2022-11-15T07:53:20;2.28;;;2.03;;
51122;SDS011;37162;41.724;13.346;2022-11-15T07:55:45;2.50;;;2.30;;
51122;SDS011;37162;41.724;13.346;2022-11-15T07:58:11;2.40;;;2.20;;
51122;SDS011;37162;41.724;13.346;2022-11-15T08:00:37;3.55;;;2.40;;
51122;SDS011;37162;41.724;13.346;2022-11-15T08:03:07;3.72;;;2.80;;
51122;SDS011;37162;41.724;13.346;2022-11-15T08:05:34;3.22;;;2.55;;
51122;SDS011;37162;41.724;13.346;2022-11-15T08:08:01;5.30;;;3.25;;
51122;SDS011;37162;41.724;13.346;2022-11-15T08:10:27;8.65;;;3.22;;
51122;SDS011;37162;41.724;13.346;2022-11-15T08:12:56;6.40;;;5.07;;
51122;SDS011;37162;41.724;13.346;2022-11-15T08:15:26;10.48;;;6.18;;
51122;SDS011;37162;41.724;13.346;2022-11-15T08:17:56;9.50;;;7.35;;
51122;SDS011;37162;41.724;13.346;2022-11-15T08:20:23;9.68;;;6.97;;
51122;SDS011;37162;41.724;13.346;2022-11-15T08:22:49;9.63;;;7.28;;
51122;SDS011;37162;41.724;13.346;2022-11-15T08:37:34;10.38;;;7.75;;
51122;SDS011;37162;41.724;13.346;2022-11-15T08:40:00;10.43;;;7.75;;
51122;SDS011;37162;41.724;13.346;2022-11-15T08:42:26;12.50;;;7.43;;
51122;SDS011;37162;41.724;13.346;2022-11-15T08:44:51;10.05;;;7.03;;
51122;SDS011;37162;41.724;13.346;2022-11-15T08:47:17;8.88;;;7.03;;
51122;SDS011;37162;41.724;13.346;2022-11-15T08:49:42;8.90;;;6.97;;
51122;SDS011;37162;41.724;13.346;2022-11-15T08:52:08;10.20;;;6.75;;
51122;SDS011;37162;41.724;13.346;2022-11-15T08:54:33;10.27;;;6.93;;
51122;SDS011;37162;41.724;13.346;2022-11-15T08:56:59;8.27;;;6.68;;
51122;SDS011;37162;41.724;13.346;2022-11-15T08:59:24;8.93;;;6.70;;
51122;SDS011;37162;41.724;13.346;2022-11-15T09:01:49;8.90;;;6.13;;
51122;SDS011;37162;41.724;13.346;2022-11-15T09:04:15;8.77;;;5.95;;
51122;SDS011;37162;41.724;13.346;2022-11-15T09:06:40;7.65;;;5.53;;
51122;SDS011;37162;41.724;13.346;2022-11-15T09:09:06;7.45;;;5.43;;
51122;SDS011;37162;41.724;13.346;2022-11-15T09:11:31;5.57;;;4.60;;
51122;SDS011;37162;41.724;13.346;2022-11-15T09:13:57;5.82;;;4.53;;
51122;SDS011;37162;41.724;13.346;2022-11-15T09:16:22;5.63;;;4.55;;
51122;SDS011;37162;41.724;13.346;2022-11-15T09:18:47;6.85;;;5.18;;
51122;SDS011;37162;41.724;13.346;2022-11-15T09:21:13;5.90;;;4.28;;
51122;SDS011;37162;41.724;13.346;2022-11-15T09:23:38;5.40;;;4.55;;
51122;SDS011;37162;41.724;13.346;2022-11-15T09:26:04;5.80;;;4.32;;
51122;SDS011;37162;41.724;13.346;2022-11-15T09:28:31;5.57;;;4.00;;
51122;SDS011;37162;41.724;13.346;2022-11-15T09:30:58;4.90;;;3.78;;
51122;SDS011;37162;41.724;13.346;2022-11-15T09:33:24;5.50;;;4.13;;
51122;SDS011;37162;41.724;13.346;2022-11-15T09:35:51;5.32;;;4.40;;
51122;SDS011;37162;41.724;13.346;2022-11-15T09:38:16;5.53;;;4.18;;
51122;SDS011;37162;41.724;13.346;2022-11-15T09:40:42;5.15;;;4.00;;
51122;SDS011;37162;41.724;13.346;2022-11-15T09:46:16;6.63;;;4.07;;
51122;SDS011;37162;41.724;13.346;2022-11-15T09:48:54;5.45;;;3.88;;
51122;SDS011;37162;41.724;13.346;2022-11-15T09:56:30;7.95;;;4.65;;
51122;SDS011;37162;41.724;13.346;2022-11-15T09:59:06;10.95;;;5.22;;
51122;SDS011;37162;41.724;13.346;2022-11-15T10:01:54;9.93;;;4.55;;
51122;SDS011;37162;41.724;13.346;2022-11-15T10:04:22;6.43;;;4.03;;
51122;SDS011;37162;41.724;13.346;2022-11-15T10:06:53;7.82;;;5.40;;
51122;SDS011;37162;41.724;13.346;2022-11-15T10:09:36;4.75;;;3.75;;
51122;SDS011;37162;41.724;13.346;2022-11-15T10:22:44;4.60;;;4.10;;
51122;SDS011;37162;41.724;13.346;2022-11-15T10:27:39;5.03;;;3.55;;
51122;SDS011;37162;41.724;13.346;2022-11-15T10:30:10;4.65;;;3.47;;
51122;SDS011;37162;41.724;13.346;2022-11-15T10:32:38;7.57;;;3.13;;
51122;SDS011;37162;41.724;13.346;2022-11-15T10:35:24;4.40;;;3.83;;
51122;SDS011;37162;41.724;13.346;2022-11-15T10:37:55;3.67;;;3.10;;
51122;SDS011;37162;41.724;13.346;2022-11-15T10:40:30;4.32;;;3.33;;
51122;SDS011;37162;41.724;13.346;2022-11-15T10:45:43;4.25;;;3.30;;
51122;SDS011;37162;41.724;13.346;2022-11-15T10:50:39;4.90;;;3.20;;
51122;SDS011;37162;41.724;13.346;2022-11-15T10:53:15;4.38;;;3.35;;
51122;SDS011;37162;41.724;13.346;2022-11-15T10:55:41;5.15;;;3.40;;
51122;SDS011;37162;41.724;13.346;2022-11-15T11:00:46;4.88;;;3.30;;
51122;SDS011;37162;41.724;13.346;2022-11-15T11:03:28;7.07;;;4.35;;
51122;SDS011;37162;41.724;13.346;2022-11-15T11:06:17;4.85;;;3.60;;
51122;SDS011;37162;41.724;13.346;2022-11-15T11:08:53;4.57;;;3.72;;
51122;SDS011;37162;41.724;13.346;2022-11-15T11:11:23;6.78;;;4.30;;
51122;SDS011;37162;41.724;13.346;2022-11-15T11:13:50;6.35;;;4.82;;
51122;SDS011;37162;41.724;13.346;2022-11-15T11:35:09;6.70;;;4.32;;
51122;SDS011;37162;41.724;13.346;2022-11-15T11:46:16;10.65;;;5.07;;
51122;SDS011;37162;41.724;13.346;2022-11-15T11:49:08;6.75;;;4.47;;
51122;SDS011;37162;41.724;13.346;2022-11-15T11:51:39;11.57;;;5.03;;
51122;SDS011;37162;41.724;13.346;2022-11-15T11:54:12;7.00;;;4.78;;
51122;SDS011;37162;41.724;13.346;2022-11-15T11:56:44;6.80;;;4.68;;
51122;SDS011;37162;41.724;13.346;2022-11-15T11:59:19;6.15;;;3.72;;
51122;SDS011;37162;41.724;13.346;2022-11-15T12:02:11;7.88;;;4.60;;
51122;SDS011;37162;41.724;13.346;2022-11-15T12:04:44;5.65;;;4.57;;
51122;SDS011;37162;41.724;13.346;2022-11-15T12:07:24;5.78;;;4.57;;
51122;SDS011;37162;41.724;13.346;2022-11-15T12:15:18;5.85;;;4.47;;
51122;SDS011;37162;41.724;13.346;2022-11-15T12:17:51;5.95;;;4.78;;
51122;SDS011;37162;41.724;13.346;2022-11-15T12:20:18;7.68;;;4.93;;
51122;SDS011;37162;41.724;13.346;2022-11-15T12:23:05;7.97;;;4.70;;
51122;SDS011;37162;41.724;13.346;2022-11-15T12:33:55;6.88;;;4.80;;
51122;SDS011;37162;41.724;13.346;2022-11-15T12:41:14;7.50;;;5.70;;
51122;SDS011;37162;41.724;13.346;2022-11-15T12:43:42;6.70;;;5.55;;
51122;SDS011;37162;41.724;13.346;2022-11-15T12:46:22;7.75;;;5.43;;
51122;SDS011;37162;41.724;13.346;2022-11-15T12:48:52;6.90;;;4.85;;
51122;SDS011;37162;41.724;13.346;2022-11-15T12:51:19;6.43;;;5.03;;
51122;SDS011;37162;41.724;13.346;2022-11-15T12:53:47;6.95;;;5.38;;
51122;SDS011;37162;41.724;13.346;2022-11-15T13:12:11;9.95;;;6.20;;
51122;SDS011;37162;41.724;13.346;2022-11-15T13:14:51;7.82;;;5.90;;
51122;SDS011;37162;41.724;13.346;2022-11-15T13:19:46;8.82;;;6.47;;
51122;SDS011;37162;41.724;13.346;2022-11-15T13:22:13;8.88;;;6.18;;
51122;SDS011;37162;41.724;13.346;2022-11-15T13:24:58;7.72;;;6.18;;
51122;SDS011;37162;41.724;13.346;2022-11-15T13:27:26;9.73;;;6.55;;
51122;SDS011;37162;41.724;13.346;2022-11-15T13:29:52;9.52;;;7.18;;
51122;SDS011;37162;41.724;13.346;2022-11-15T13:32:18;10.65;;;6.47;;
51122;SDS011;37162;41.724;13.346;2022-11-15T13:34:48;10.38;;;6.45;;
51122;SDS011;37162;41.724;13.346;2022-11-15T13:39:46;9.07;;;6.45;;
51122;SDS011;37162;41.724;13.346;2022-11-15T13:42:16;10.10;;;6.75;;
51122;SDS011;37162;41.724;13.346;2022-11-15T13:44:57;8.82;;;6.50;;
51122;SDS011;37162;41.724;13.346;2022-11-15T13:47:27;6.60;;;5.60;;
51122;SDS011;37162;41.724;13.346;2022-11-15T13:49:56;9.70;;;6.20;;
51122;SDS011;37162;41.724;13.346;2022-11-15T13:52:22;10.93;;;7.30;;
51122;SDS011;37162;41.724;13.346;2022-11-15T13:57:26;8.77;;;6.60;;
51122;SDS011;37162;41.724;13.346;2022-11-15T14:00:01;9.73;;;7.05;;
51122;SDS011;37162;41.724;13.346;2022-11-15T14:02:31;11.40;;;7.25;;
51122;SDS011;37162;41.724;13.346;2022-11-15T14:07:40;11.60;;;8.10;;
51122;SDS011;37162;41.724;13.346;2022-11-15T14:10:37;10.60;;;7.55;;
51122;SDS011;37162;41.724;13.346;2022-11-15T14:13:03;12.13;;;7.78;;
51122;SDS011;37162;41.724;13.346;2022-11-15T14:15:36;13.65;;;7.88;;
51122;SDS011;37162;41.724;13.346;2022-11-15T14:18:03;9.80;;;7.47;;
51122;SDS011;37162;41.724;13.346;2022-11-15T14:22:56;11.43;;;7.85;;
51122;SDS011;37162;41.724;13.346;2022-11-15T14:25:27;14.10;;;8.07;;
51122;SDS011;37162;41.724;13.346;2022-11-15T14:30:55;13.27;;;8.85;;
51122;SDS011;37162;41.724;13.346;2022-11-15T14:33:40;9.85;;;7.53;;
51122;SDS011;37162;41.724;13.346;2022-11-15T14:36:10;10.80;;;7.60;;
51122;SDS011;37162;41.724;13.346;2022-11-15T14:38:38;10.90;;;8.23;;
51122;SDS011;37162;41.724;13.346;2022-11-15T14:41:03;10.27;;;8.13;;
51122;SDS011;37162;41.724;13.346;2022-11-15T14:43:29;13.02;;;8.88;;
51122;SDS011;37162;41.724;13.346;2022-11-15T14:45:55;12.15;;;8.70;;
51122;SDS011;37162;41.724;13.346;2022-11-15T14:48:20;12.88;;;9.00;;
51122;SDS011;37162;41.724;13.346;2022-11-15T14:50:47;16.83;;;8.32;;
51122;SDS011;37162;41.724;13.346;2022-11-15T14:53:16;12.68;;;8.32;;
51122;SDS011;37162;41.724;13.346;2022-11-15T14:55:43;14.05;;;9.05;;
51122;SDS011;37162;41.724;13.346;2022-11-15T14:58:08;12.02;;;8.43;;
51122;SDS011;37162;41.724;13.346;2022-11-15T15:00:38;13.50;;;9.00;;
51122;SDS011;37162;41.724;13.346;2022-11-15T15:03:04;12.02;;;8.90;;
51122;SDS011;37162;41.724;13.346;2022-11-15T15:05:34;12.52;;;8.13;;
51122;SDS011;37162;41.724;13.346;2022-11-15T15:08:02;12.37;;;8.13;;
51122;SDS011;37162;41.724;13.346;2022-11-15T15:10:35;11.55;;;8.60;;
51122;SDS011;37162;41.724;13.346;2022-11-15T15:13:08;12.65;;;8.60;;
51122;SDS011;37162;41.724;13.346;2022-11-15T15:15:47;13.75;;;9.32;;
51122;SDS011;37162;41.724;13.346;2022-11-15T15:18:14;10.50;;;8.32;;
51122;SDS011;37162;41.724;13.346;2022-11-15T15:20:41;11.60;;;8.38;;
51122;SDS011;37162;41.724;13.346;2022-11-15T15:23:13;15.60;;;9.07;;
51122;SDS011;37162;41.724;13.346;2022-11-15T15:25:44;12.38;;;8.57;;
51122;SDS011;37162;41.724;13.346;2022-11-15T15:28:11;11.77;;;8.98;;
51122;SDS011;37162;41.724;13.346;2022-11-15T15:30:37;15.45;;;8.60;;
51122;SDS011;37162;41.724;13.346;2022-11-15T15:33:02;11.48;;;8.50;;
51122;SDS011;37162;41.724;13.346;2022-11-15T15:35:29;13.85;;;8.50;;
51122;SDS011;37162;41.724;13.346;2022-11-15T15:37:57;12.00;;;8.30;;
51122;SDS011;37162;41.724;13.346;2022-11-15T15:40:24;9.95;;;8.25;;
51122;SDS011;37162;41.724;13.346;2022-11-15T15:42:50;13.35;;;9.00;;
51122;SDS011;37162;41.724;13.346;2022-11-15T15:45:16;12.25;;;8.93;;
51122;SDS011;37162;41.724;13.346;2022-11-15T15:47:43;12.52;;;9.27;;
51122;SDS011;37162;41.724;13.346;2022-11-15T15:50:28;12.73;;;9.32;;
51122;SDS011;37162;41.724;13.346;2022-11-15T15:52:59;13.13;;;9.27;;
51122;SDS011;37162;41.724;13.346;2022-11-15T15:55:27;14.50;;;9.77;;
51122;SDS011;37162;41.724;13.346;2022-11-15T15:57:53;16.42;;;10.20;;
51122;SDS011;37162;41.724;13.346;2022-11-15T16:00:19;17.60;;;11.18;;
51122;SDS011;37162;41.724;13.346;2022-11-15T16:02:46;15.57;;;10.45;;
51122;SDS011;37162;41.724;13.346;2022-11-15T16:05:12;15.57;;;10.38;;
51122;SDS011;37162;41.724;13.346;2022-11-15T16:07:38;18.08;;;11.68;;
51122;SDS011;37162;41.724;13.346;2022-11-15T16:10:24;16.63;;;11.23;;
51122;SDS011;37162;41.724;13.346;2022-11-15T16:12:59;14.38;;;10.48;;
51122;SDS011;37162;41.724;13.346;2022-11-15T16:15:25;11.63;;;9.25;;
51122;SDS011;37162;41.724;13.346;2022-11-15T16:17:58;14.18;;;10.48;;
51122;SDS011;37162;41.724;13.346;2022-11-15T16:20:35;15.65;;;10.82;;
51122;SDS011;37162;41.724;13.346;2022-11-15T16:23:04;15.60;;;10.43;;
51122;SDS011;37162;41.724;13.346;2022-11-15T16:25:37;14.73;;;10.55;;
51122;SDS011;37162;41.724;13.346;2022-11-15T16:30:58;13.65;;;9.45;;
51122;SDS011;37162;41.724;13.346;2022-11-15T16:33:26;14.07;;;9.02;;
51122;SDS011;37162;41.724;13.346;2022-11-15T16:35:51;12.15;;;8.90;;
51122;SDS011;37162;41.724;13.346;2022-11-15T16:38:17;12.15;;;9.10;;
51122;SDS011;37162;41.724;13.346;2022-11-15T16:40:43;10.73;;;8.63;;
51122;SDS011;37162;41.724;13.346;2022-11-15T16:43:08;13.48;;;9.23;;
51122;SDS011;37162;41.724;13.346;2022-11-15T16:45:34;10.38;;;8.38;;
51122;SDS011;37162;41.724;13.346;2022-11-15T16:48:00;10.70;;;8.30;;
51122;SDS011;37162;41.724;13.346;2022-11-15T16:50:27;12.95;;;9.25;;
51122;SDS011;37162;41.724;13.346;2022-11-15T16:52:59;11.18;;;9.15;;
51122;SDS011;37162;41.724;13.346;2022-11-15T16:55:25;9.88;;;8.20;;
51122;SDS011;37162;41.724;13.346;2022-11-15T16:57:53;11.13;;;8.43;;
51122;SDS011;37162;41.724;13.346;2022-11-15T17:00:19;12.18;;;9.27;;
51122;SDS011;37162;41.724;13.346;2022-11-15T17:02:46;11.32;;;8.40;;
51122;SDS011;37162;41.724;13.346;2022-11-15T17:05:13;10.98;;;8.82;;
51122;SDS011;37162;41.724;13.346;2022-11-15T17:07:40;10.80;;;8.40;;
51122;SDS011;37162;41.724;13.346;2022-11-15T17:10:06;11.10;;;7.85;;
51122;SDS011;37162;41.724;13.346;2022-11-15T17:12:34;10.15;;;7.70;;
51122;SDS011;37162;41.724;13.346;2022-11-15T17:15:00;10.27;;;7.30;;
51122;SDS011;37162;41.724;13.346;2022-11-15T17:17:26;8.75;;;7.28;;
51122;SDS011;37162;41.724;13.346;2022-11-15T17:19:52;9.77;;;6.47;;